sensor_id;sensor_type;location;lat;lon;timestamp;P1;durP1;ratioP1;P2;durP2;ratioP2
18661;SDS011;61528;49.456;11.098;2024-03-08T05:54:16;33.20;;;16.17;;
18661;SDS011;61528;49.456;11.098;2024-03-08T05:56:43;42.80;;;18.50;;
18661;SDS011;61528;49.456;11.098;2024-03-08T05:59:09;34.83;;;17.40;;
18661;SDS011;61528;49.456;11.098;2024-03-08T06:01:36;35.90;;;18.47;;
18661;SDS011;61528;49.456;11.098;2024-03-08T06:04:03;28.43;;;15.53;;
18661;SDS011;61528;49.456;11.098;2024-03-08T06:06:29;30.60;;;16.23;;
18661;SDS011;61528;49.456;11.098;2024-03-08T06:08:56;30.40;;;16.47;;
18661;SDS011;61528;49.456;11.098;2024-03-08T06:11:24;28.47;;;16.13;;
18661;SDS011;61528;49.456;11.098;2024-03-08T06:13:55;31.70;;;16.30;;
18661;SDS011;61528;49.456;11.098;2024-03-08T06:16:28;28.43;;;15.87;;
18661;SDS011;61528;49.456;11.098;2024-03-08T06:18:57;30.80;;;16.57;;
18661;SDS011;61528;49.456;11.098;2024-03-08T06:21:24;30.90;;;16.73;;
18661;SDS011;61528;49.456;11.098;2024-03-08T06:23:53;29.93;;;16.53;;
18661;SDS011;61528;49.456;11.098;2024-03-08T06:26:26;31.73;;;17.27;;
18661;SDS011;61528;49.456;11.098;2024-03-08T06:28:55;30.07;;;16.10;;
18661;SDS011;61528;49.456;11.098;2024-03-08T06:31:21;30.17;;;16.90;;
18661;SDS011;61528;49.456;11.098;2024-03-08T06:33:48;28.70;;;16.27;;
18661;SDS011;61528;49.456;11.098;2024-03-08T06:36:18;30.77;;;15.83;;
18661;SDS011;61528;49.456;11.098;2024-03-08T06:38:47;33.23;;;17.50;;
18661;SDS011;61528;49.456;11.098;2024-03-08T06:41:13;33.07;;;17.10;;
18661;SDS011;61528;49.456;11.098;2024-03-08T06:43:42;30.83;;;16.77;;
18661;SDS011;61528;49.456;11.098;2024-03-08T06:46:09;35.43;;;17.00;;
18661;SDS011;61528;49.456;11.098;2024-03-08T06:48:40;31.23;;;16.50;;
18661;SDS011;61528;49.456;11.098;2024-03-08T06:51:07;33.37;;;16.80;;
18661;SDS011;61528;49.456;11.098;2024-03-08T06:53:33;32.03;;;17.13;;
18661;SDS011;61528;49.456;11.098;2024-03-08T06:56:03;32.33;;;17.33;;
18661;SDS011;61528;49.456;11.098;2024-03-08T06:58:30;31.90;;;17.00;;
18661;SDS011;61528;49.456;11.098;2024-03-08T07:00:58;31.87;;;17.53;;
18661;SDS011;61528;49.456;11.098;2024-03-08T07:03:26;34.43;;;17.13;;
18661;SDS011;61528;49.456;11.098;2024-03-08T07:05:55;35.40;;;17.33;;
18661;SDS011;61528;49.456;11.098;2024-03-08T07:08:23;31.83;;;17.20;;
18661;SDS011;61528;49.456;11.098;2024-03-08T07:10:50;30.80;;;16.80;;
18661;SDS011;61528;49.456;11.098;2024-03-08T07:13:16;36.83;;;17.47;;
18661;SDS011;61528;49.456;11.098;2024-03-08T07:15:43;31.53;;;17.10;;
18661;SDS011;61528;49.456;11.098;2024-03-08T07:18:10;28.97;;;16.80;;
18661;SDS011;61528;49.456;11.098;2024-03-08T07:20:40;36.00;;;18.83;;
18661;SDS011;61528;49.456;11.098;2024-03-08T07:23:07;30.13;;;16.67;;
18661;SDS011;61528;49.456;11.098;2024-03-08T07:25:34;35.97;;;18.33;;
18661;SDS011;61528;49.456;11.098;2024-03-08T07:28:00;30.17;;;16.37;;
18661;SDS011;61528;49.456;11.098;2024-03-08T07:30:26;29.77;;;16.20;;
18661;SDS011;61528;49.456;11.098;2024-03-08T07:33:08;31.33;;;17.10;;
18661;SDS011;61528;49.456;11.098;2024-03-08T07:35:40;34.33;;;18.40;;
18661;SDS011;61528;49.456;11.098;2024-03-08T07:38:07;33.67;;;17.83;;
18661;SDS011;61528;49.456;11.098;2024-03-08T07:40:37;32.17;;;16.77;;
18661;SDS011;61528;49.456;11.098;2024-03-08T07:43:09;32.00;;;17.33;;
18661;SDS011;61528;49.456;11.098;2024-03-08T07:45:37;29.83;;;16.73;;
18661;SDS011;61528;49.456;11.098;2024-03-08T07:48:03;31.23;;;16.90;;
18661;SDS011;61528;49.456;11.098;2024-03-08T07:50:34;32.80;;;16.87;;
18661;SDS011;61528;49.456;11.098;2024-03-08T07:53:02;32.03;;;18.07;;
18661;SDS011;61528;49.456;11.098;2024-03-08T07:55:28;32.87;;;17.70;;
18661;SDS011;61528;49.456;11.098;2024-03-08T07:57:56;28.60;;;16.83;;
18661;SDS011;61528;49.456;11.098;2024-03-08T08:00:22;31.70;;;16.97;;
18661;SDS011;61528;49.456;11.098;2024-03-08T08:02:49;28.60;;;16.77;;
18661;SDS011;61528;49.456;11.098;2024-03-08T08:05:15;32.07;;;16.73;;
18661;SDS011;61528;49.456;11.098;2024-03-08T08:07:46;31.77;;;16.83;;
18661;SDS011;61528;49.456;11.098;2024-03-08T08:10:12;30.07;;;16.40;;
18661;SDS011;61528;49.456;11.098;2024-03-08T08:12:43;33.53;;;17.37;;
18661;SDS011;61528;49.456;11.098;2024-03-08T08:15:09;27.17;;;16.10;;
18661;SDS011;61528;49.456;11.098;2024-03-08T08:17:35;29.10;;;16.27;;
18661;SDS011;61528;49.456;11.098;2024-03-08T08:20:02;27.47;;;15.80;;
18661;SDS011;61528;49.456;11.098;2024-03-08T08:22:30;27.50;;;15.83;;
18661;SDS011;61528;49.456;11.098;2024-03-08T08:24:57;26.93;;;15.40;;
18661;SDS011;61528;49.456;11.098;2024-03-08T08:27:23;26.67;;;14.50;;
18661;SDS011;61528;49.456;11.098;2024-03-08T08:29:51;30.20;;;16.40;;
18661;SDS011;61528;49.456;11.098;2024-03-08T08:32:17;24.43;;;14.17;;
18661;SDS011;61528;49.456;11.098;2024-03-08T08:34:44;26.47;;;14.37;;
18661;SDS011;61528;49.456;11.098;2024-03-08T08:37:11;27.83;;;15.17;;
18661;SDS011;61528;49.456;11.098;2024-03-08T08:39:37;26.77;;;15.60;;
18661;SDS011;61528;49.456;11.098;2024-03-08T08:42:03;27.50;;;15.17;;
18661;SDS011;61528;49.456;11.098;2024-03-08T08:44:29;25.50;;;14.87;;
18661;SDS011;61528;49.456;11.098;2024-03-08T08:46:56;26.77;;;15.20;;
18661;SDS011;61528;49.456;11.098;2024-03-08T08:49:23;25.60;;;14.50;;
18661;SDS011;61528;49.456;11.098;2024-03-08T08:51:51;18.57;;;12.20;;
18661;SDS011;61528;49.456;11.098;2024-03-08T08:54:18;22.57;;;12.57;;
18661;SDS011;61528;49.456;11.098;2024-03-08T08:56:45;18.50;;;11.90;;
18661;SDS011;61528;49.456;11.098;2024-03-08T08:59:14;20.47;;;12.57;;
18661;SDS011;61528;49.456;11.098;2024-03-08T09:01:44;18.23;;;11.13;;
18661;SDS011;61528;49.456;11.098;2024-03-08T09:04:12;21.57;;;12.83;;
18661;SDS011;61528;49.456;11.098;2024-03-08T09:06:39;24.57;;;11.97;;
18661;SDS011;61528;49.456;11.098;2024-03-08T09:09:10;19.07;;;11.67;;
18661;SDS011;61528;49.456;11.098;2024-03-08T09:11:38;19.90;;;11.80;;
18661;SDS011;61528;49.456;11.098;2024-03-08T09:14:08;18.53;;;11.47;;
18661;SDS011;61528;49.456;11.098;2024-03-08T09:16:34;16.80;;;10.90;;
18661;SDS011;61528;49.456;11.098;2024-03-08T09:19:00;18.63;;;11.73;;
18661;SDS011;61528;49.456;11.098;2024-03-08T09:21:26;17.63;;;11.93;;
18661;SDS011;61528;49.456;11.098;2024-03-08T09:23:52;19.53;;;11.40;;
18661;SDS011;61528;49.456;11.098;2024-03-08T09:26:19;21.40;;;11.37;;
18661;SDS011;61528;49.456;11.098;2024-03-08T09:28:47;19.23;;;11.60;;
18661;SDS011;61528;49.456;11.098;2024-03-08T09:31:13;19.63;;;12.00;;
18661;SDS011;61528;49.456;11.098;2024-03-08T09:33:41;17.80;;;11.67;;
18661;SDS011;61528;49.456;11.098;2024-03-08T09:36:07;21.80;;;11.87;;
18661;SDS011;61528;49.456;11.098;2024-03-08T09:38:34;18.57;;;10.87;;
18661;SDS011;61528;49.456;11.098;2024-03-08T09:41:01;16.57;;;10.40;;
18661;SDS011;61528;49.456;11.098;2024-03-08T09:43:27;18.33;;;11.67;;
18661;SDS011;61528;49.456;11.098;2024-03-08T09:45:54;17.13;;;11.00;;
18661;SDS011;61528;49.456;11.098;2024-03-08T09:48:20;17.57;;;10.67;;
18661;SDS011;61528;49.456;11.098;2024-03-08T09:50:48;18.90;;;11.17;;
18661;SDS011;61528;49.456;11.098;2024-03-08T09:53:14;18.43;;;11.03;;
18661;SDS011;61528;49.456;11.098;2024-03-08T09:55:41;14.53;;;10.10;;
18661;SDS011;61528;49.456;11.098;2024-03-08T09:58:11;16.97;;;10.93;;
18661;SDS011;61528;49.456;11.098;2024-03-08T10:01:07;15.57;;;10.47;;
18661;SDS011;61528;49.456;11.098;2024-03-08T10:03:33;17.23;;;10.40;;
18661;SDS011;61528;49.456;11.098;2024-03-08T10:06:01;19.77;;;11.23;;
18661;SDS011;61528;49.456;11.098;2024-03-08T10:08:28;17.40;;;10.60;;
18661;SDS011;61528;49.456;11.098;2024-03-08T10:10:57;14.97;;;10.23;;
18661;SDS011;61528;49.456;11.098;2024-03-08T10:13:24;15.27;;;9.67;;
18661;SDS011;61528;49.456;11.098;2024-03-08T10:15:52;15.53;;;10.27;;
18661;SDS011;61528;49.456;11.098;2024-03-08T10:18:18;15.57;;;10.80;;
18661;SDS011;61528;49.456;11.098;2024-03-08T10:20:44;15.27;;;9.87;;
18661;SDS011;61528;49.456;11.098;2024-03-08T10:23:11;13.93;;;9.20;;
18661;SDS011;61528;49.456;11.098;2024-03-08T10:25:37;14.23;;;9.40;;
18661;SDS011;61528;49.456;11.098;2024-03-08T10:28:04;17.77;;;10.40;;
18661;SDS011;61528;49.456;11.098;2024-03-08T10:30:33;14.70;;;9.67;;
18661;SDS011;61528;49.456;11.098;2024-03-08T10:32:59;20.87;;;10.27;;
18661;SDS011;61528;49.456;11.098;2024-03-08T10:35:26;16.77;;;9.87;;
18661;SDS011;61528;49.456;11.098;2024-03-08T10:37:52;13.27;;;9.00;;
18661;SDS011;61528;49.456;11.098;2024-03-08T10:40:28;11.83;;;8.20;;
18661;SDS011;61528;49.456;11.098;2024-03-08T10:42:55;15.30;;;9.67;;
18661;SDS011;61528;49.456;11.098;2024-03-08T10:45:40;17.50;;;9.20;;
18661;SDS011;61528;49.456;11.098;2024-03-08T10:50:37;13.77;;;8.93;;
18661;SDS011;61528;49.456;11.098;2024-03-08T10:53:04;21.30;;;9.50;;
18661;SDS011;61528;49.456;11.098;2024-03-08T10:55:32;12.30;;;8.60;;
18661;SDS011;61528;49.456;11.098;2024-03-08T10:57:59;15.87;;;8.67;;
18661;SDS011;61528;49.456;11.098;2024-03-08T11:00:26;11.00;;;7.77;;
18661;SDS011;61528;49.456;11.098;2024-03-08T11:02:55;15.60;;;8.37;;
18661;SDS011;61528;49.456;11.098;2024-03-08T11:08:24;20.67;;;8.33;;
18661;SDS011;61528;49.456;11.098;2024-03-08T11:10:53;15.37;;;8.77;;
18661;SDS011;61528;49.456;11.098;2024-03-08T11:13:35;11.07;;;7.93;;
18661;SDS011;61528;49.456;11.098;2024-03-08T11:16:02;11.13;;;7.93;;
18661;SDS011;61528;49.456;11.098;2024-03-08T11:18:33;9.27;;;7.10;;
18661;SDS011;61528;49.456;11.098;2024-03-08T11:21:03;11.27;;;7.33;;
18661;SDS011;61528;49.456;11.098;2024-03-08T11:23:37;11.43;;;7.13;;
18661;SDS011;61528;49.456;11.098;2024-03-08T11:26:17;11.33;;;7.73;;
18661;SDS011;61528;49.456;11.098;2024-03-08T11:28:43;11.00;;;7.53;;
18661;SDS011;61528;49.456;11.098;2024-03-08T11:33:36;10.27;;;7.50;;
18661;SDS011;61528;49.456;11.098;2024-03-08T11:36:11;10.93;;;7.20;;
18661;SDS011;61528;49.456;11.098;2024-03-08T11:38:42;11.90;;;7.70;;
18661;SDS011;61528;49.456;11.098;2024-03-08T11:44:05;9.47;;;6.87;;
18661;SDS011;61528;49.456;11.098;2024-03-08T11:46:32;8.90;;;6.83;;
18661;SDS011;61528;49.456;11.098;2024-03-08T11:48:59;10.43;;;7.40;;
18661;SDS011;61528;49.456;11.098;2024-03-08T11:51:26;12.83;;;7.67;;
18661;SDS011;61528;49.456;11.098;2024-03-08T11:53:53;14.50;;;7.13;;
18661;SDS011;61528;49.456;11.098;2024-03-08T11:56:19;9.87;;;6.83;;
18661;SDS011;61528;49.456;11.098;2024-03-08T11:58:52;9.90;;;7.30;;
18661;SDS011;61528;49.456;11.098;2024-03-08T12:01:19;11.07;;;7.43;;
18661;SDS011;61528;49.456;11.098;2024-03-08T12:03:45;9.00;;;7.10;;
18661;SDS011;61528;49.456;11.098;2024-03-08T12:06:18;9.27;;;6.50;;
18661;SDS011;61528;49.456;11.098;2024-03-08T12:08:45;9.17;;;6.90;;
18661;SDS011;61528;49.456;11.098;2024-03-08T12:11:19;9.20;;;7.20;;
18661;SDS011;61528;49.456;11.098;2024-03-08T12:13:49;10.13;;;6.67;;
18661;SDS011;61528;49.456;11.098;2024-03-08T12:16:19;10.63;;;6.97;;
18661;SDS011;61528;49.456;11.098;2024-03-08T12:18:50;10.67;;;7.20;;
18661;SDS011;61528;49.456;11.098;2024-03-08T12:21:17;10.43;;;7.07;;
18661;SDS011;61528;49.456;11.098;2024-03-08T12:23:46;8.37;;;6.37;;
18661;SDS011;61528;49.456;11.098;2024-03-08T12:26:23;9.87;;;6.93;;
18661;SDS011;61528;49.456;11.098;2024-03-08T12:28:51;10.33;;;7.03;;
18661;SDS011;61528;49.456;11.098;2024-03-08T12:31:18;8.57;;;6.93;;
18661;SDS011;61528;49.456;11.098;2024-03-08T12:33:49;9.47;;;7.20;;
18661;SDS011;61528;49.456;11.098;2024-03-08T12:36:16;7.40;;;6.20;;
18661;SDS011;61528;49.456;11.098;2024-03-08T12:38:46;7.90;;;6.13;;
18661;SDS011;61528;49.456;11.098;2024-03-08T12:41:16;9.00;;;7.03;;
18661;SDS011;61528;49.456;11.098;2024-03-08T12:43:43;7.80;;;6.33;;
18661;SDS011;61528;49.456;11.098;2024-03-08T12:46:16;8.20;;;6.63;;
18661;SDS011;61528;49.456;11.098;2024-03-08T12:48:42;8.90;;;7.13;;
18661;SDS011;61528;49.456;11.098;2024-03-08T12:51:15;8.97;;;7.07;;
18661;SDS011;61528;49.456;11.098;2024-03-08T12:53:43;8.07;;;7.00;;
18661;SDS011;61528;49.456;11.098;2024-03-08T12:56:11;10.03;;;7.63;;
18661;SDS011;61528;49.456;11.098;2024-03-08T12:58:37;8.70;;;7.57;;
18661;SDS011;61528;49.456;11.098;2024-03-08T13:01:04;9.70;;;8.10;;
18661;SDS011;61528;49.456;11.098;2024-03-08T13:03:33;8.23;;;7.33;;
18661;SDS011;61528;49.456;11.098;2024-03-08T13:06:01;8.63;;;7.13;;
18661;SDS011;61528;49.456;11.098;2024-03-08T13:08:29;8.50;;;7.70;;
18661;SDS011;61528;49.456;11.098;2024-03-08T13:10:56;8.37;;;7.47;;
18661;SDS011;61528;49.456;11.098;2024-03-08T13:13:24;7.53;;;6.80;;
18661;SDS011;61528;49.456;11.098;2024-03-08T13:15:50;8.10;;;7.30;;
18661;SDS011;61528;49.456;11.098;2024-03-08T13:18:18;7.28;;;6.57;;
18661;SDS011;61528;49.456;11.098;2024-03-08T13:20:45;7.45;;;6.63;;
18661;SDS011;61528;49.456;11.098;2024-03-08T13:23:15;8.63;;;7.82;;
18661;SDS011;61528;49.456;11.098;2024-03-08T13:25:43;8.52;;;7.28;;
18661;SDS011;61528;49.456;11.098;2024-03-08T13:28:09;9.45;;;8.55;;
18661;SDS011;61528;49.456;11.098;2024-03-08T13:30:36;8.52;;;7.72;;
18661;SDS011;61528;49.456;11.098;2024-03-08T13:33:03;8.80;;;7.90;;
18661;SDS011;61528;49.456;11.098;2024-03-08T13:35:30;8.52;;;7.70;;
18661;SDS011;61528;49.456;11.098;2024-03-08T13:37:57;9.30;;;8.40;;
18661;SDS011;61528;49.456;11.098;2024-03-08T13:40:24;10.38;;;9.30;;
18661;SDS011;61528;49.456;11.098;2024-03-08T13:42:51;10.00;;;9.10;;
18661;SDS011;61528;49.456;11.098;2024-03-08T13:45:17;10.63;;;9.52;;
18661;SDS011;61528;49.456;11.098;2024-03-08T13:47:46;10.38;;;9.48;;
18661;SDS011;61528;49.456;11.098;2024-03-08T13:50:12;11.18;;;9.68;;
18661;SDS011;61528;49.456;11.098;2024-03-08T13:52:49;10.38;;;9.45;;
18661;SDS011;61528;49.456;11.098;2024-03-08T13:55:19;10.18;;;9.05;;
18661;SDS011;61528;49.456;11.098;2024-03-08T13:57:47;9.27;;;8.45;;
18661;SDS011;61528;49.456;11.098;2024-03-08T14:00:14;9.43;;;8.52;;
18661;SDS011;61528;49.456;11.098;2024-03-08T14:02:40;10.77;;;9.77;;
18661;SDS011;61528;49.456;11.098;2024-03-08T14:05:07;9.90;;;9.00;;
18661;SDS011;61528;49.456;11.098;2024-03-08T14:07:34;11.35;;;10.25;;
18661;SDS011;61528;49.456;11.098;2024-03-08T14:10:01;10.07;;;9.07;;
18661;SDS011;61528;49.456;11.098;2024-03-08T14:12:28;9.60;;;8.60;;
18661;SDS011;61528;49.456;11.098;2024-03-08T14:14:55;10.43;;;9.23;;
18661;SDS011;61528;49.456;11.098;2024-03-08T14:17:25;9.55;;;8.65;;
18661;SDS011;61528;49.456;11.098;2024-03-08T14:19:53;9.88;;;8.75;;
18661;SDS011;61528;49.456;11.098;2024-03-08T14:22:20;9.70;;;8.70;;
18661;SDS011;61528;49.456;11.098;2024-03-08T14:24:46;10.27;;;9.27;;
18661;SDS011;61528;49.456;11.098;2024-03-08T14:27:12;10.23;;;9.33;;
18661;SDS011;61528;49.456;11.098;2024-03-08T14:29:40;9.77;;;8.87;;
18661;SDS011;61528;49.456;11.098;2024-03-08T14:32:08;10.17;;;9.13;;
18661;SDS011;61528;49.456;11.098;2024-03-08T14:34:36;9.80;;;8.80;;
18661;SDS011;61528;49.456;11.098;2024-03-08T14:37:02;9.53;;;8.67;;
18661;SDS011;61528;49.456;11.098;2024-03-08T14:39:31;10.90;;;8.53;;
18661;SDS011;61528;49.456;11.098;2024-03-08T14:41:58;9.57;;;8.57;;
18661;SDS011;61528;49.456;11.098;2024-03-08T14:44:25;10.40;;;8.93;;
18661;SDS011;61528;49.456;11.098;2024-03-08T14:46:52;9.73;;;8.50;;
18661;SDS011;61528;49.456;11.098;2024-03-08T14:49:18;9.57;;;8.60;;
18661;SDS011;61528;49.456;11.098;2024-03-08T14:54:49;9.27;;;8.27;;
18661;SDS011;61528;49.456;11.098;2024-03-08T14:57:18;9.23;;;8.03;;
18661;SDS011;61528;49.456;11.098;2024-03-08T14:59:44;8.87;;;8.00;;
18661;SDS011;61528;49.456;11.098;2024-03-08T15:02:10;9.03;;;8.13;;
18661;SDS011;61528;49.456;11.098;2024-03-08T15:04:37;8.80;;;7.97;;
18661;SDS011;61528;49.456;11.098;2024-03-08T15:07:06;12.40;;;8.37;;
18661;SDS011;61528;49.456;11.098;2024-03-08T15:09:37;10.50;;;9.50;;
18661;SDS011;61528;49.456;11.098;2024-03-08T15:12:08;9.47;;;8.47;;
18661;SDS011;61528;49.456;11.098;2024-03-08T15:14:39;10.00;;;9.07;;
18661;SDS011;61528;49.456;11.098;2024-03-08T15:17:09;10.30;;;9.07;;
18661;SDS011;61528;49.456;11.098;2024-03-08T15:19:45;9.17;;;8.17;;
18661;SDS011;61528;49.456;11.098;2024-03-08T15:22:13;9.37;;;8.43;;
18661;SDS011;61528;49.456;11.098;2024-03-08T15:24:40;9.67;;;8.70;;
18661;SDS011;61528;49.456;11.098;2024-03-08T15:27:08;10.77;;;8.90;;
18661;SDS011;61528;49.456;11.098;2024-03-08T15:29:35;10.33;;;8.50;;
18661;SDS011;61528;49.456;11.098;2024-03-08T15:32:01;9.90;;;8.30;;
18661;SDS011;61528;49.456;11.098;2024-03-08T15:34:29;9.67;;;8.13;;
18661;SDS011;61528;49.456;11.098;2024-03-08T15:36:56;10.60;;;9.00;;
18661;SDS011;61528;49.456;11.098;2024-03-08T15:39:27;11.47;;;9.60;;
18661;SDS011;61528;49.456;11.098;2024-03-08T15:41:56;10.77;;;8.80;;
18661;SDS011;61528;49.456;11.098;2024-03-08T15:44:23;11.23;;;9.40;;
18661;SDS011;61528;49.456;11.098;2024-03-08T15:46:53;10.07;;;8.80;;
18661;SDS011;61528;49.456;11.098;2024-03-08T15:49:19;11.27;;;8.23;;
18661;SDS011;61528;49.456;11.098;2024-03-08T15:51:46;10.30;;;8.70;;
18661;SDS011;61528;49.456;11.098;2024-03-08T15:54:13;11.07;;;8.67;;
18661;SDS011;61528;49.456;11.098;2024-03-08T15:56:40;10.83;;;8.90;;
18661;SDS011;61528;49.456;11.098;2024-03-08T15:59:06;12.50;;;9.20;;
18661;SDS011;61528;49.456;11.098;2024-03-08T16:01:33;10.57;;;8.83;;
18661;SDS011;61528;49.456;11.098;2024-03-08T16:04:01;11.77;;;9.40;;
18661;SDS011;61528;49.456;11.098;2024-03-08T16:06:30;12.73;;;8.93;;
18661;SDS011;61528;49.456;11.098;2024-03-08T16:08:56;11.70;;;9.07;;
18661;SDS011;61528;49.456;11.098;2024-03-08T16:11:24;10.03;;;8.50;;
18661;SDS011;61528;49.456;11.098;2024-03-08T16:13:50;10.43;;;8.90;;
18661;SDS011;61528;49.456;11.098;2024-03-08T16:16:16;11.80;;;8.83;;
18661;SDS011;61528;49.456;11.098;2024-03-08T16:18:43;11.30;;;9.13;;
18661;SDS011;61528;49.456;11.098;2024-03-08T16:21:09;11.10;;;8.73;;
18661;SDS011;61528;49.456;11.098;2024-03-08T16:23:35;11.77;;;9.00;;
18661;SDS011;61528;49.456;11.098;2024-03-08T16:26:01;12.17;;;8.97;;
18661;SDS011;61528;49.456;11.098;2024-03-08T16:28:27;11.43;;;9.00;;
18661;SDS011;61528;49.456;11.098;2024-03-08T16:31:03;11.23;;;9.30;;
18661;SDS011;61528;49.456;11.098;2024-03-08T16:33:29;14.03;;;8.70;;
18661;SDS011;61528;49.456;11.098;2024-03-08T16:35:56;10.80;;;8.93;;
18661;SDS011;61528;49.456;11.098;2024-03-08T16:38:22;11.87;;;9.00;;
18661;SDS011;61528;49.456;11.098;2024-03-08T16:40:48;13.80;;;9.63;;
18661;SDS011;61528;49.456;11.098;2024-03-08T16:43:20;12.10;;;8.33;;
18661;SDS011;61528;49.456;11.098;2024-03-08T16:45:47;11.23;;;8.07;;
18661;SDS011;61528;49.456;11.098;2024-03-08T16:48:15;12.43;;;8.40;;
18661;SDS011;61528;49.456;11.098;2024-03-08T16:50:42;11.07;;;8.73;;
18661;SDS011;61528;49.456;11.098;2024-03-08T16:53:10;12.00;;;8.63;;
18661;SDS011;61528;49.456;11.098;2024-03-08T16:55:40;11.87;;;8.93;;
18661;SDS011;61528;49.456;11.098;2024-03-08T16:58:06;9.83;;;8.20;;
18661;SDS011;61528;49.456;11.098;2024-03-08T17:00:39;11.07;;;8.70;;
18661;SDS011;61528;49.456;11.098;2024-03-08T17:03:07;10.33;;;8.33;;
18661;SDS011;61528;49.456;11.098;2024-03-08T17:05:33;11.57;;;9.30;;
18661;SDS011;61528;49.456;11.098;2024-03-08T17:08:01;11.50;;;8.60;;
18661;SDS011;61528;49.456;11.098;2024-03-08T17:10:33;12.60;;;8.70;;
18661;SDS011;61528;49.456;11.098;2024-03-08T17:13:00;11.70;;;8.17;;
18661;SDS011;61528;49.456;11.098;2024-03-08T17:15:28;12.40;;;8.73;;
18661;SDS011;61528;49.456;11.098;2024-03-08T17:17:56;11.63;;;9.33;;
18661;SDS011;61528;49.456;11.098;2024-03-08T17:20:26;10.93;;;8.23;;
18661;SDS011;61528;49.456;11.098;2024-03-08T17:22:55;13.57;;;9.30;;
18661;SDS011;61528;49.456;11.098;2024-03-08T17:25:22;10.27;;;7.83;;
18661;SDS011;61528;49.456;11.098;2024-03-08T17:27:50;12.00;;;8.90;;
18661;SDS011;61528;49.456;11.098;2024-03-08T17:30:18;11.93;;;8.17;;
18661;SDS011;61528;49.456;11.098;2024-03-08T17:32:47;11.93;;;8.37;;
18661;SDS011;61528;49.456;11.098;2024-03-08T17:35:13;10.80;;;7.93;;
18661;SDS011;61528;49.456;11.098;2024-03-08T17:37:43;13.80;;;8.87;;
18661;SDS011;61528;49.456;11.098;2024-03-08T17:40:11;11.57;;;8.20;;
18661;SDS011;61528;49.456;11.098;2024-03-08T17:42:38;10.67;;;8.60;;
18661;SDS011;61528;49.456;11.098;2024-03-08T17:45:04;14.17;;;9.17;;
18661;SDS011;61528;49.456;11.098;2024-03-08T17:47:31;12.97;;;8.60;;
18661;SDS011;61528;49.456;11.098;2024-03-08T17:49:58;13.50;;;9.17;;
18661;SDS011;61528;49.456;11.098;2024-03-08T17:52:25;10.47;;;8.30;;
18661;SDS011;61528;49.456;11.098;2024-03-08T17:54:51;11.70;;;8.90;;
18661;SDS011;61528;49.456;11.098;2024-03-08T17:57:17;12.47;;;9.23;;
18661;SDS011;61528;49.456;11.098;2024-03-08T17:59:44;12.00;;;8.90;;
18661;SDS011;61528;49.456;11.098;2024-03-08T18:02:13;12.27;;;8.87;;
18661;SDS011;61528;49.456;11.098;2024-03-08T18:04:40;12.17;;;8.50;;
18661;SDS011;61528;49.456;11.098;2024-03-08T18:07:06;12.50;;;8.87;;
18661;SDS011;61528;49.456;11.098;2024-03-08T18:09:33;11.83;;;8.83;;
18661;SDS011;61528;49.456;11.098;2024-03-08T18:11:59;13.90;;;9.50;;
18661;SDS011;61528;49.456;11.098;2024-03-08T18:14:26;11.57;;;8.70;;
18661;SDS011;61528;49.456;11.098;2024-03-08T18:16:52;14.07;;;9.40;;
18661;SDS011;61528;49.456;11.098;2024-03-08T18:19:19;14.03;;;8.77;;
18661;SDS011;61528;49.456;11.098;2024-03-08T18:21:45;12.83;;;9.20;;
18661;SDS011;61528;49.456;11.098;2024-03-08T18:24:13;13.87;;;8.83;;
18661;SDS011;61528;49.456;11.098;2024-03-08T18:26:43;12.23;;;8.33;;
18661;SDS011;61528;49.456;11.098;2024-03-08T18:29:10;14.30;;;9.20;;
18661;SDS011;61528;49.456;11.098;2024-03-08T18:31:36;11.53;;;8.47;;
18661;SDS011;61528;49.456;11.098;2024-03-08T18:34:02;14.93;;;9.73;;
18661;SDS011;61528;49.456;11.098;2024-03-08T18:36:31;12.40;;;9.00;;
18661;SDS011;61528;49.456;11.098;2024-03-08T18:39:02;13.80;;;9.33;;
18661;SDS011;61528;49.456;11.098;2024-03-08T18:41:29;15.20;;;9.50;;
18661;SDS011;61528;49.456;11.098;2024-03-08T18:44:02;13.93;;;9.50;;
18661;SDS011;61528;49.456;11.098;2024-03-08T18:46:29;14.40;;;9.23;;
18661;SDS011;61528;49.456;11.098;2024-03-08T18:48:56;13.43;;;9.57;;
18661;SDS011;61528;49.456;11.098;2024-03-08T18:51:22;13.37;;;8.77;;
18661;SDS011;61528;49.456;11.098;2024-03-08T18:53:49;13.43;;;9.67;;
18661;SDS011;61528;49.456;11.098;2024-03-08T18:56:17;15.03;;;9.97;;
18661;SDS011;61528;49.456;11.098;2024-03-08T18:58:44;12.93;;;8.87;;
18661;SDS011;61528;49.456;11.098;2024-03-08T19:01:10;13.13;;;9.00;;
18661;SDS011;61528;49.456;11.098;2024-03-08T19:03:36;13.50;;;9.37;;
18661;SDS011;61528;49.456;11.098;2024-03-08T19:06:06;13.03;;;9.27;;
18661;SDS011;61528;49.456;11.098;2024-03-08T19:08:32;18.70;;;9.83;;
18661;SDS011;61528;49.456;11.098;2024-03-08T19:10:59;14.03;;;9.47;;
18661;SDS011;61528;49.456;11.098;2024-03-08T19:13:25;15.60;;;9.87;;
18661;SDS011;61528;49.456;11.098;2024-03-08T19:15:51;14.90;;;10.27;;
18661;SDS011;61528;49.456;11.098;2024-03-08T19:18:18;14.30;;;9.03;;
18661;SDS011;61528;49.456;11.098;2024-03-08T19:20:44;13.13;;;9.30;;
18661;SDS011;61528;49.456;11.098;2024-03-08T19:23:11;13.77;;;9.60;;
18661;SDS011;61528;49.456;11.098;2024-03-08T19:25:38;15.50;;;9.43;;
18661;SDS011;61528;49.456;11.098;2024-03-08T19:28:10;16.70;;;9.07;;
18661;SDS011;61528;49.456;11.098;2024-03-08T19:30:38;15.37;;;10.27;;
18661;SDS011;61528;49.456;11.098;2024-03-08T19:33:05;16.07;;;10.20;;
18661;SDS011;61528;49.456;11.098;2024-03-08T19:35:38;15.23;;;9.93;;
18661;SDS011;61528;49.456;11.098;2024-03-08T19:38:05;14.00;;;9.57;;
18661;SDS011;61528;49.456;11.098;2024-03-08T19:40:36;15.40;;;10.33;;
18661;SDS011;61528;49.456;11.098;2024-03-08T19:43:05;14.93;;;10.03;;
18661;SDS011;61528;49.456;11.098;2024-03-08T19:45:32;16.60;;;9.70;;
18661;SDS011;61528;49.456;11.098;2024-03-08T19:48:00;13.73;;;9.57;;
18661;SDS011;61528;49.456;11.098;2024-03-08T19:50:29;17.97;;;10.50;;
18661;SDS011;61528;49.456;11.098;2024-03-08T19:52:57;13.00;;;9.87;;
18661;SDS011;61528;49.456;11.098;2024-03-08T19:55:32;16.00;;;9.93;;
18661;SDS011;61528;49.456;11.098;2024-03-08T19:57:59;17.13;;;10.73;;
18661;SDS011;61528;49.456;11.098;2024-03-08T20:00:26;17.67;;;11.10;;
18661;SDS011;61528;49.456;11.098;2024-03-08T20:02:54;15.80;;;9.93;;
18661;SDS011;61528;49.456;11.098;2024-03-08T20:05:21;17.73;;;11.23;;
18661;SDS011;61528;49.456;11.098;2024-03-08T20:07:51;16.17;;;10.37;;
18661;SDS011;61528;49.456;11.098;2024-03-08T20:10:20;15.63;;;10.03;;
18661;SDS011;61528;49.456;11.098;2024-03-08T20:12:46;15.77;;;10.53;;
18661;SDS011;61528;49.456;11.098;2024-03-08T20:15:14;17.00;;;11.00;;
18661;SDS011;61528;49.456;11.098;2024-03-08T20:17:41;17.80;;;10.53;;
18661;SDS011;61528;49.456;11.098;2024-03-08T20:20:10;18.70;;;10.67;;
18661;SDS011;61528;49.456;11.098;2024-03-08T20:22:40;16.37;;;10.57;;
18661;SDS011;61528;49.456;11.098;2024-03-08T20:25:10;16.93;;;10.70;;
18661;SDS011;61528;49.456;11.098;2024-03-08T20:27:42;17.77;;;10.83;;
18661;SDS011;61528;49.456;11.098;2024-03-08T20:30:13;19.00;;;11.73;;